Time;durP1;ratioP1;P1;durP2;ratioP2;P2;SDS_P1;SDS_P2;PMS_P1;PMS_P2;Temp;Humidity;BMP_temperature;BMP_pressure;BME280_temperature;BME280_humidity;BME280_pressure;Samples;Min_cycle;Max_cycle;Signal;HPM_P1;HPM_P2
2021/08/10 00:01:29;;;;;;;16.38;8.02;;;;;;;;;;4978103;28;20022;-83
2021/08/10 00:03:55;;;;;;;16.60;8.25;;;;;;;;;;4978285;28;20122;-82
2021/08/10 00:06:21;;;;;;;14.05;8.88;;;;;;;;;;4978530;28;20110;-82
2021/08/10 00:08:48;;;;;;;9.90;7.43;;;;;;;;;;4977759;28;20120;-81
2021/08/10 00:11:14;;;;;;;13.82;7.35;;;;;;;;;;4977743;28;20018;-81
2021/08/10 00:13:40;;;;;;;13.73;7.63;;;;;;;;;;4978019;28;20356;-82
2021/08/10 00:16:06;;;;;;;12.65;8.15;;;;;;;;;;4977848;28;20015;-83
2021/08/10 00:18:32;;;;;;;11.38;8.23;;;;;;;;;;4977610;28;20036;-82
2021/08/10 00:20:58;;;;;;;14.48;8.35;;;;;;;;;;4977852;28;20499;-83
2021/08/10 00:23:24;;;;;;;13.95;7.28;;;;;;;;;;4977685;28;20022;-83
2021/08/10 00:25:50;;;;;;;14.45;7.82;;;615.10;2432.00;;;;;;4977788;28;20105;-82
2021/08/10 00:28:16;;;;;;;10.65;7.40;;;615.10;2432.00;;;;;;4994951;28;20503;-82
2021/08/10 00:30:44;;;;;;;13.90;7.78;;;615.10;2432.00;;;;;;4977715;28;20029;-84
2021/08/10 00:33:12;;;;;;;12.85;7.10;;;615.10;2432.00;;;;;;4977520;28;20026;-83
2021/08/10 00:35:43;;;;;;;11.90;7.55;;;615.10;2432.00;;;;;;4977635;28;20023;-82
2021/08/10 00:38:17;;;;;;;12.77;7.43;;;615.10;2432.00;;;;;;4977401;28;20027;-82
2021/08/10 00:40:55;;;;;;;11.13;7.47;;;615.10;2432.00;;;;;;4977562;28;20038;-82
2021/08/10 00:43:56;;;;;;;13.43;6.72;;;615.10;2432.00;;;;;;4977650;28;20483;-83
2021/08/10 00:46:24;;;;;;;14.27;7.53;;;615.10;2432.00;;;;;;4997217;28;20038;-82
2021/08/10 00:49:03;;;;;;;12.43;7.93;;;615.10;2432.00;;;;;;5002182;28;20014;-81
2021/08/10 00:51:32;;;;;;;10.57;7.55;;;614.90;2432.00;;;;;;5002140;28;20034;-82
2021/08/10 00:54:01;;;;;;;11.15;7.13;;;614.90;2432.00;;;;;;5005512;28;20061;-81
2021/08/10 00:56:27;;;;;;;12.32;7.70;;;614.90;2432.00;;;;;;5006095;28;20015;-82
2021/08/10 00:58:53;;;;;;;12.50;7.20;;;614.90;2432.00;;;;;;5006025;28;20042;-83
2021/08/10 01:01:21;;;;;;;15.02;7.15;;;614.90;2432.00;;;;;;5005142;28;20062;-82
2021/08/10 01:03:47;;;;;;;14.48;8.48;;;614.90;2432.00;;;;;;4984338;28;20018;-84
2021/08/10 01:06:40;;;;;;;10.23;7.55;;;614.80;2432.00;;;;;;4984671;28;20069;-82
2021/08/10 01:09:36;;;;;;;11.88;7.95;;;614.60;2432.00;;;;;;4983399;28;20109;-82
2021/08/10 01:12:28;;;;;;;11.32;7.55;;;614.60;2432.00;;;;;;4984253;28;20061;-82
2021/08/10 01:15:24;;;;;;;;;;;614.70;2432.00;;;;;;4984964;28;20085;-82
2021/08/10 01:18:46;;;;;;;14.63;7.68;;;614.60;2432.00;;;;;;4971793;28;19952;-83
2021/08/10 01:22:03;;;;;;;;;;;;;;;;;;;;;
2021/08/10 01:24:44;;;;;;;8.85;7.13;;;614.60;2432.00;;;;;;4998329;28;20583;-83
2021/08/10 01:27:47;;;;;;;10.90;8.13;;;614.60;2432.00;;;;;;4981238;28;20118;-84
2021/08/10 01:30:21;;;;;;;15.30;8.18;;;614.50;2432.00;;;;;;4980427;28;20035;-84
2021/08/10 01:32:55;;;;;;;10.38;7.35;;;589.70;2432.00;;;;;;4981025;28;20073;-83
2021/08/10 01:35:31;;;;;;;11.00;7.43;;;614.40;2432.00;;;;;;4980653;28;20023;-83
2021/08/10 01:38:16;;;;;;;13.52;7.57;;;589.70;2432.00;;;;;;4980863;28;20050;-83
2021/08/10 01:40:59;;;;;;;15.30;8.68;;;614.40;2432.00;;;;;;4980806;28;20105;-82
2021/08/10 01:43:32;;;;;;;10.85;7.57;;;589.70;2432.00;;;;;;4980880;28;20105;-84
2021/08/10 01:46:31;;;;;;;12.93;7.70;;;589.70;2432.00;;;;;;4998629;28;20022;-82
2021/08/10 01:49:20;;;;;;;13.25;8.00;;;589.70;2432.00;;;;;;4980194;28;20031;-82
2021/08/10 01:51:50;;;;;;;11.90;7.68;;;589.70;2432.00;;;;;;4998389;28;20054;-83
2021/08/10 01:54:17;;;;;;;12.55;7.85;;;589.70;2432.00;;;;;;4979779;28;20037;-83
2021/08/10 01:56:50;;;;;;;15.05;7.88;;;614.50;2432.00;;;;;;4986542;28;20018;-82
2021/08/10 01:59:18;;;;;;;11.00;7.75;;;614.40;2432.00;;;;;;4993551;28;20057;-82
2021/08/10 02:01:51;;;;;;;11.13;7.55;;;589.70;2432.00;;;;;;4993451;28;20113;-83
2021/08/10 02:04:32;;;;;;;12.07;7.90;;;589.60;2432.00;;;;;;4979279;28;20030;-83
2021/08/10 02:07:04;;;;;;;13.40;7.90;;;589.70;2432.00;;;;;;4977414;28;20185;-83
2021/08/10 02:09:34;;;;;;;13.23;7.55;;;589.70;2432.00;;;;;;4977019;28;20049;-84
2021/08/10 02:12:13;;;;;;;11.82;7.50;;;589.70;2432.00;;;;;;4976707;28;20345;-83
2021/08/10 02:14:45;;;;;;;12.20;7.97;;;589.60;2432.00;;;;;;4976969;28;20034;-84
2021/08/10 02:17:13;;;;;;;;;;;589.70;2432.00;;;;;;4977133;28;20046;-83
2021/08/10 02:19:39;;;;;;;10.13;7.30;;;589.40;2432.00;;;;;;4976654;28;19953;-84
2021/08/10 02:22:08;;;;;;;11.95;7.68;;;589.40;2432.00;;;;;;4976892;28;20019;-85
2021/08/10 02:24:37;;;;;;;12.68;7.93;;;589.40;2432.00;;;;;;4976555;28;20030;-82
2021/08/10 02:27:07;;;;;;;15.73;7.85;;;589.20;2432.00;;;;;;4976464;28;20026;-82
2021/08/10 02:29:40;;;;;;;15.52;9.13;;;589.40;2432.00;;;;;;4976382;28;20042;-84
2021/08/10 02:32:08;;;;;;;10.75;8.07;;;589.30;2432.00;;;;;;4976487;28;20061;-83
2021/08/10 02:34:36;;;;;;;13.48;7.70;;;589.40;2432.00;;;;;;4976555;28;20018;-84
2021/08/10 02:37:02;;;;;;;11.85;7.68;;;589.50;2432.00;;;;;;4976187;28;20081;-84
2021/08/10 02:39:30;;;;;;;12.95;8.02;;;589.50;2432.00;;;;;;4976197;28;20031;-83
2021/08/10 02:41:59;;;;;;;11.70;8.15;;;589.40;2432.00;;;;;;4976799;28;20404;-83
2021/08/10 02:44:27;;;;;;;15.73;8.45;;;589.10;2432.00;;;;;;4977216;28;20464;-83
2021/08/10 02:46:53;;;;;;;11.77;7.90;;;589.20;2432.00;;;;;;4977136;28;20051;-83
2021/08/10 02:49:21;;;;;;;12.85;8.45;;;589.20;2432.00;;;;;;4988899;28;20035;-82
2021/08/10 02:51:47;;;;;;;13.13;8.57;;;589.20;2432.00;;;;;;4979298;28;20042;-82
2021/08/10 02:54:14;;;;;;;9.98;7.40;;;589.40;2432.00;;;;;;4975907;28;20022;-84
2021/08/10 02:56:50;;;;;;;11.25;7.88;;;589.40;2432.00;;;;;;4976464;28;20030;-82
2021/08/10 02:59:27;;;;;;;11.38;7.90;;;589.30;2432.00;;;;;;4977116;28;20144;-83
2021/08/10 03:02:02;;;;;;;10.23;7.75;;;589.40;2432.00;;;;;;4975754;28;20019;-83
2021/08/10 03:04:30;;;;;;;14.50;8.18;;;589.40;2432.00;;;;;;5008509;28;20034;-84
2021/08/10 03:06:58;;;;;;;13.77;9.27;;;589.40;2432.00;;;;;;4975625;28;20025;-82
2021/08/10 03:09:33;;;;;;;11.35;8.25;;;589.40;2432.00;;;;;;4975596;28;20050;-83
2021/08/10 03:12:05;;;;;;;16.98;7.40;;;589.40;2432.00;;;;;;4975672;28;20030;-83
2021/08/10 03:14:32;;;;;;;;;;;589.40;2432.00;;;;;;4975305;28;20110;-83
2021/08/10 03:17:07;;;;;;;13.23;7.90;;;589.50;2432.00;;;;;;5007546;28;19906;-84
2021/08/10 03:19:41;;;;;;;13.60;8.85;;;589.50;2432.00;;;;;;4975113;28;20539;-82
2021/08/10 03:22:11;;;;;;;14.10;7.90;;;589.60;2432.00;;;;;;4975067;28;20377;-83
2021/08/10 03:24:38;;;;;;;14.00;8.88;;;589.50;2432.00;;;;;;4975516;28;20046;-82
2021/08/10 03:27:10;;;;;;;11.90;8.10;;;589.50;2432.00;;;;;;4975128;28;20034;-84
2021/08/10 03:29:37;;;;;;;;;;;589.60;2432.00;;;;;;4975388;28;20070;-84
2021/08/10 03:32:09;;;;;;;11.95;8.10;;;589.50;2432.00;;;;;;5007728;28;20260;-82
2021/08/10 03:34:43;;;;;;;11.05;8.20;;;589.30;2432.00;;;;;;4975058;28;20364;-84
2021/08/10 03:37:17;;;;;;;12.15;8.35;;;589.40;2432.00;;;;;;4974294;28;20089;-82
2021/08/10 03:39:46;;;;;;;15.45;9.05;;;589.50;2432.00;;;;;;4975235;28;20026;-82
2021/08/10 03:42:15;;;;;;;14.13;8.30;;;589.40;2432.00;;;;;;4975107;28;20023;-84
2021/08/10 03:44:51;;;;;;;15.15;9.07;;;589.50;2432.00;;;;;;4975210;28;20049;-84
2021/08/10 03:47:18;;;;;;;13.57;8.18;;;589.40;2432.00;;;;;;4975029;28;20023;-82
2021/08/10 03:49:46;;;;;;;11.38;8.63;;;589.50;2432.00;;;;;;4974948;28;20077;-83
2021/08/10 03:52:13;;;;;;;13.95;9.40;;;589.60;2432.00;;;;;;4974639;28;20053;-83
2021/08/10 03:54:41;;;;;;;13.10;9.60;;;589.50;2432.00;;;;;;4975127;28;20669;-82
2021/08/10 03:57:13;;;;;;;21.60;9.55;;;589.50;2432.00;;;;;;4973746;28;20037;-82
2021/08/10 03:59:39;;;;;;;15.80;8.73;;;589.20;2432.00;;;;;;4974585;28;20027;-84
2021/08/10 04:02:05;;;;;;;16.90;9.60;;;564.10;2432.00;;;;;;4974680;28;20249;-83
2021/08/10 04:04:32;;;;;;;13.85;10.65;;;589.50;2432.00;;;;;;4974988;28;20027;-84
2021/08/10 04:06:59;;;;;;;13.02;10.45;;;614.60;2432.00;;;;;;4990755;28;20117;-84
2021/08/10 04:09:25;;;;;;;17.80;11.80;;;589.20;2432.00;;;;;;4974850;28;20035;-84
2021/08/10 04:11:51;;;;;;;14.00;10.52;;;589.60;2432.00;;;;;;4974998;28;20467;-82
2021/08/10 04:14:18;;;;;;;14.15;10.38;;;589.60;2432.00;;;;;;4991214;28;20027;-82
2021/08/10 04:16:56;;;;;;;15.65;9.90;;;589.60;2432.00;;;;;;4974611;28;20026;-84
2021/08/10 04:19:27;;;;;;;19.00;11.75;;;589.50;2432.00;;;;;;4974873;28;20039;-83
2021/08/10 04:21:53;;;;;;;22.38;12.27;;;589.40;2432.00;;;;;;4974732;28;20030;-82
2021/08/10 04:24:19;;;;;;;19.00;12.05;;;589.10;2432.00;;;;;;4974471;28;20031;-84
2021/08/10 04:26:48;;;;;;;21.23;11.77;;;589.20;2432.00;;;;;;4974684;28;20057;-83
2021/08/10 04:29:14;;;;;;;22.08;11.95;;;589.50;2432.00;;;;;;4991090;28;20547;-83
2021/08/10 04:31:47;;;;;;;21.35;10.98;;;589.50;2432.00;;;;;;4974577;28;20019;-83
2021/08/10 04:34:13;;;;;;;18.52;12.05;;;589.40;2432.00;;;;;;4990843;28;20476;-83
2021/08/10 04:41:00;;;;;;;14.07;10.25;;;614.80;2432.00;;;;;;4994592;28;20065;-83
2021/08/10 04:43:44;;;;;;;19.23;10.48;;;589.60;2432.00;;;;;;4998030;28;20022;-84
2021/08/10 04:46:13;;;;;;;23.88;11.25;;;589.60;2432.00;;;;;;4996989;28;20054;-82
2021/08/10 04:48:39;;;;;;;19.70;11.40;;;589.70;2432.00;;;;;;4983890;28;20035;-84
2021/08/10 04:51:12;;;;;;;19.65;10.38;;;589.50;2432.00;;;;;;4977468;28;20057;-84
2021/08/10 04:53:39;;;;;;;23.42;11.23;;;589.70;2432.00;;;;;;4993347;28;20023;-83
2021/08/10 04:56:17;;;;;;;17.05;9.43;;;588.80;2432.00;;;;;;4976037;28;20101;-83
2021/08/10 04:58:43;;;;;;;19.00;9.70;;;589.60;2432.00;;;;;;4975137;28;20117;-84
2021/08/10 05:01:09;;;;;;;17.20;9.45;;;589.50;2432.00;;;;;;4975752;28;20444;-83
2021/08/10 05:03:37;;;;;;;17.63;9.20;;;589.50;2432.00;;;;;;4976413;28;20030;-83
2021/08/10 05:06:04;;;;;;;14.85;8.98;;;589.40;2432.00;;;;;;4976690;28;20022;-83
2021/08/10 05:08:30;;;;;;;21.30;9.98;;;589.60;2432.00;;;;;;4986739;28;20071;-83
2021/08/10 05:10:58;;;;;;;16.50;10.02;;;589.50;2432.00;;;;;;5008193;28;20480;-84
2021/08/10 05:13:24;;;;;;;20.95;11.45;;;589.40;2432.00;;;;;;5009727;28;20030;-84
2021/08/10 05:15:51;;;;;;;14.32;11.35;;;614.80;2432.00;;;;;;4992979;28;20019;-83
2021/08/10 05:18:16;;;;;;;17.98;10.55;;;589.50;2432.00;;;;;;5009717;28;20064;-82
2021/08/10 05:20:42;;;;;;;20.17;10.18;;;589.40;2432.00;;;;;;5009981;28;20113;-83
2021/08/10 05:23:15;;;;;;;20.50;10.63;;;589.40;2432.00;;;;;;4993443;28;20018;-84
2021/08/10 05:25:41;;;;;;;18.88;10.27;;;589.40;2432.00;;;;;;4993268;28;20023;-81
2021/08/10 05:28:24;;;;;;;22.90;11.02;;;589.40;2432.00;;;;;;5009054;28;20041;-84
2021/08/10 05:30:50;;;;;;;15.05;10.20;;;589.50;2432.00;;;;;;4993402;28;20100;-83
2021/08/10 05:33:16;;;;;;;16.58;10.40;;;589.50;2432.00;;;;;;5009409;28;20058;-82
2021/08/10 05:35:45;;;;;;;16.67;9.80;;;589.50;2432.00;;;;;;5009765;28;20467;-83
2021/08/10 05:41:28;;;;;;;15.73;9.63;;;589.60;2432.00;;;;;;4988455;28;20023;-83
2021/08/10 05:43:59;;;;;;;13.93;9.63;;;589.70;2432.00;;;;;;5013410;28;20026;-82
2021/08/10 05:49:46;;;;;;;18.80;10.07;;;614.60;2432.00;;;;;;4989446;28;20042;-82
2021/08/10 05:52:12;;;;;;;17.77;11.13;;;614.60;2432.00;;;;;;5012769;28;20177;-83
2021/08/10 05:54:38;;;;;;;20.17;11.27;;;614.70;2432.00;;;;;;5012879;28;20077;-83
2021/08/10 05:57:06;;;;;;;24.13;11.48;;;614.80;2432.00;;;;;;5012871;28;20030;-82
2021/08/10 05:59:32;;;;;;;19.75;13.05;;;614.90;2432.00;;;;;;5012911;28;20054;-84
2021/08/10 06:01:59;;;;;;;22.98;11.32;;;614.80;2432.00;;;;;;5012703;28;20499;-84
2021/08/10 06:04:32;;;;;;;17.95;10.23;;;614.90;2432.00;;;;;;4996125;28;20372;-84
2021/08/10 06:07:25;;;;;;;16.33;9.73;;;615.10;2432.00;;;;;;4996663;28;20537;-83
2021/08/10 06:10:22;;;;;;;16.15;9.73;;;615.10;2432.00;;;;;;5012193;28;20057;-83
2021/08/10 07:38:26;;;;;;;11.32;7.78;;;;;;;;;;4815792;29;20049;-82
2021/08/10 07:41:22;;;;;;;16.13;8.20;;;;;;;;;;4805235;29;20061;-84
2021/08/10 07:44:24;;;;;;;12.85;8.38;;;;;;;;;;4841336;29;20121;-82
2021/08/10 07:46:53;;;;;;;15.02;7.22;;;;;;;;;;4790372;29;20173;-83
2021/08/10 07:49:19;;;;;;;13.60;8.40;;;;;;;;;;4820569;29;20128;-85
2021/08/10 07:51:45;;;;;;;11.43;7.20;;;;;;;;;;4879189;29;20047;-86
2021/08/10 07:54:11;;;;;;;13.13;7.70;;;;;;;;;;4898193;28;20026;-81
2021/08/10 07:56:37;;;;;;;13.48;7.95;;;;;;;;;;4978055;28;20029;-82
2021/08/10 07:59:03;;;;;;;19.13;8.68;;;;;;;;;;4974267;28;20039;-84
2021/08/10 08:01:29;;;;;;;17.23;7.95;;;768.10;2432.00;;;;;;4974325;28;20051;-82
2021/08/10 08:03:55;;;;;;;13.50;8.13;;;768.00;2432.00;;;;;;4974655;28;20057;-85
2021/08/10 08:06:21;;;;;;;13.63;8.38;;;;;;;;;;4975257;28;20026;-84
2021/08/10 08:08:47;;;;;;;13.65;8.75;;;;;;;;;;4974671;28;20031;-86
2021/08/10 08:11:14;;;;;;;18.38;7.93;;;;;;;;;;4974750;28;20034;-83
2021/08/10 08:13:40;;;;;;;10.68;7.30;;;;;;;;;;4974418;28;20037;-84
2021/08/10 08:16:06;;;;;;;13.30;9.40;;;793.60;2432.00;;;;;;4974486;28;20023;-84
2021/08/10 08:18:31;;;;;;;19.65;9.48;;;768.90;2432.00;;;;;;4974561;28;20021;-83
2021/08/10 08:20:57;;;;;;;17.15;10.32;;;768.80;2432.00;;;;;;4974330;28;20023;-83
2021/08/10 08:23:25;;;;;;;18.35;8.90;;;793.60;2432.00;;;;;;4974544;28;20027;-83
2021/08/10 08:25:52;;;;;;;14.60;8.63;;;794.00;2432.00;;;;;;4968587;28;20034;-84
2021/08/10 08:28:22;;;;;;;16.48;6.95;;;;;;;;;;4960845;28;20031;-83
2021/08/10 08:30:48;;;;;;;13.85;8.50;;;;;;;;;;4987389;28;20114;-84
2021/08/10 08:33:14;;;;;;;12.35;8.13;;;;;;;;;;4987388;28;20457;-82
2021/08/10 08:35:40;;;;;;;13.98;7.60;;;;;;;;;;4987353;28;20027;-83
2021/08/10 08:38:07;;;;;;;15.50;8.95;;;794.50;2432.00;;;;;;4989812;28;20031;-84
2021/08/10 08:40:36;;;;;;;14.07;7.75;;;794.50;2432.00;;;;;;4939516;29;20484;-84
2021/08/10 08:43:02;;;;;;;16.45;8.27;;;819.20;2432.00;;;;;;4955181;29;20094;-85
2021/08/10 08:45:28;;;;;;;11.65;8.00;;;819.20;2432.00;;;;;;4955196;29;20424;-85
2021/08/10 08:48:02;;;;;;;9.05;6.85;;;819.30;2432.00;;;;;;4955035;29;20023;-84
2021/08/10 08:50:33;;;;;;;12.50;7.10;;;819.80;2406.40;;;;;;4946253;29;20138;-82
2021/08/10 08:53:16;;;;;;;10.75;6.40;;;794.30;2406.40;;;;;;4954140;29;20484;-82
2021/08/10 09:00:07;;;;;;;15.55;8.30;;;819.50;2380.80;;;;;;4961958;28;20053;-82
2021/08/10 09:49:01;;;;;;;11.60;6.63;;;870.50;2227.20;;;;;;4999189;28;20081;-85
2021/08/10 09:51:50;;;;;;;8.65;5.75;;;870.70;2124.80;;;;;;4937653;28;20024;-84
2021/08/10 09:54:28;;;;;;;11.18;6.70;;;870.60;2150.40;;;;;;4977612;28;20026;-82
2021/08/10 09:57:15;;;;;;;9.32;6.53;;;870.90;2150.40;;;;;;4976416;28;20124;-83
2021/08/10 09:59:48;;;;;;;9.27;5.88;;;871.30;2124.80;;;;;;4977099;28;20082;-84
2021/08/10 10:02:39;;;;;;;12.02;6.20;;;896.00;2073.60;;;;;;4976591;28;20018;-84
2021/08/10 10:05:16;;;;;;;10.02;5.63;;;896.40;1996.80;;;;;;4976917;28;20022;-85
2021/08/10 10:11:20;;;;;;;16.25;11.68;;;896.20;1971.20;;;;;;4987784;28;20119;-87
2021/08/10 10:17:11;;;;;;;14.60;7.22;;;922.00;1971.20;;;;;;4968634;28;20376;-84
2021/08/10 10:31:40;;;;;;;9.15;4.82;;;921.80;1843.20;;;;;;4102014;23;20663;-88
2021/08/10 11:28:52;;;;;;;9.02;4.88;;;998.70;1510.40;;;;;;4935561;29;20043;-85
2021/08/10 11:31:43;;;;;;;7.70;3.83;;;998.70;1510.40;;;;;;4933129;29;20038;-85
2021/08/10 11:34:45;;;;;;;8.05;4.22;;;998.40;1484.80;;;;;;4898660;29;20040;-84
2021/08/10 11:37:32;;;;;;;6.95;3.95;;;998.70;1536.00;;;;;;5010208;28;20025;-84
2021/08/10 11:40:35;;;;;;;;;;;;;;;;;;;;;
2021/08/10 11:43:28;;;;;;;6.10;4.13;;;998.80;1484.80;;;;;;5016044;28;20025;-83
2021/08/10 11:46:07;;;;;;;7.63;4.22;;;998.80;1510.40;;;;;;5013885;28;20041;-86
2021/08/10 11:48:47;;;;;;;7.85;4.65;;;998.80;1484.80;;;;;;5014710;28;20081;-84
2021/08/10 11:51:39;;;;;;;7.73;4.00;;;998.80;1484.80;;;;;;5013778;28;20041;-84
2021/08/10 11:54:10;;;;;;;8.60;5.13;;;;;;;;;;5014065;28;20060;-83
2021/08/10 11:56:41;;;;;;;11.98;5.47;;;;;;;;;;5015114;28;20056;-83
2021/08/10 12:02:44;;;;;;;9.23;4.65;;;;;;;;;;4936205;29;20031;-83
2021/08/10 12:05:14;;;;;;;12.68;5.63;;;;;;;;;;4931462;29;20039;-81
2021/08/10 12:07:49;;;;;;;10.57;4.72;;;;;;;;;;4940793;29;20100;-81
2021/08/10 12:10:20;;;;;;;9.48;4.00;;;;;;;;;;4958415;28;20077;-81
2021/08/10 12:12:47;;;;;;;8.43;5.88;;;;;;;;;;5019074;28;20059;-82
2021/08/10 12:15:32;;;;;;;10.85;4.90;;;;;;;;;;5037258;28;20018;-83
2021/08/10 12:17:59;;;;;;;11.98;5.72;;;;;;;;;;5036656;28;20022;-83
2021/08/10 12:20:25;;;;;;;9.82;4.18;;;;;;;;;;5035798;28;20041;-83
2021/08/10 12:23:02;;;;;;;9.70;4.53;;;;;;;;;;5029741;28;20014;-83
2021/08/10 12:25:28;;;;;;;9.52;5.70;;;;;;;;;;5009658;28;20026;-82
2021/08/10 12:28:07;;;;;;;9.18;5.55;;;;;;;;;;5023710;28;20041;-83
2021/08/10 12:30:34;;;;;;;7.43;5.20;;;1024.70;1408.00;;;;;;5016823;28;20026;-83
2021/08/10 12:33:22;;;;;;;7.45;4.35;;;1024.20;1408.00;;;;;;5015706;28;20486;-85
2021/08/10 12:36:03;;;;;;;8.75;4.03;;;1024.50;1408.00;;;;;;5013169;28;20022;-85
2021/08/10 12:38:29;;;;;;;6.50;4.33;;;1024.50;1382.40;;;;;;5013322;28;20108;-83
2021/08/10 12:40:56;;;;;;;7.18;4.30;;;1024.60;1382.40;;;;;;5013225;28;20026;-84
2021/08/10 12:43:25;;;;;;;7.80;5.15;;;1024.50;1382.40;;;;;;5012753;28;20026;-84
2021/08/10 12:45:51;;;;;;;8.93;4.78;;;1024.50;1408.00;;;;;;5012674;28;20026;-81
2021/08/10 12:48:34;;;;;;;9.55;4.68;;;1024.50;1382.40;;;;;;5011814;28;20018;-82
2021/08/10 12:51:05;;;;;;;8.68;4.07;;;1024.60;1408.00;;;;;;5011934;28;20103;-82
2021/08/10 12:53:33;;;;;;;7.82;4.38;;;1024.50;1356.80;;;;;;5012047;28;20026;-83
2021/08/10 12:56:02;;;;;;;7.35;4.38;;;1024.50;1408.00;;;;;;5012153;28;20030;-83
2021/08/10 12:58:28;;;;;;;8.05;3.95;;;1024.50;1382.40;;;;;;5012249;28;20026;-82
2021/08/10 13:01:08;;;;;;;6.43;4.00;;;1024.50;1356.80;;;;;;5011802;28;20028;-83
2021/08/10 13:03:34;;;;;;;7.75;4.43;;;1024.50;1356.80;;;;;;5012230;28;20385;-82
2021/08/10 13:06:03;;;;;;;6.80;4.03;;;1024.50;1331.20;;;;;;5012215;28;20026;-83
2021/08/10 13:08:29;;;;;;;8.35;4.35;;;1050.00;1382.40;;;;;;5012031;28;20026;-85
2021/08/10 13:25:40;;;;;;;9.77;4.40;;;1024.90;1331.20;;;;;;4936547;28;20045;-84
2021/08/10 13:29:08;;;;;;;10.52;4.57;;;1049.60;1356.80;;;;;;4917012;28;20098;-84
2021/08/10 13:35:15;;;;;;;9.95;6.85;;;1024.50;1305.60;;;;;;4972986;28;20042;-84
2021/08/10 13:37:41;;;;;;;9.05;5.90;;;1024.40;1331.20;;;;;;4960818;28;20413;-84
2021/08/10 13:46:46;;;;;;;11.82;5.32;;;1024.40;1228.80;;;;;;5009065;28;20125;-82
2021/08/10 13:50:20;;;;;;;8.65;5.43;;;1024.50;1254.40;;;;;;4996009;28;20022;-84
2021/08/10 13:53:37;;;;;;;7.63;4.95;;;1024.50;1331.20;;;;;;4912545;29;20407;-84
2021/08/10 13:57:07;;;;;;;;;;;;;;;;;;;;;
2021/08/10 14:00:35;;;;;;;7.40;5.50;;;1024.20;1356.80;;;;;;4879548;29;20036;-84
2021/08/10 14:03:33;;;;;;;10.65;6.18;;;1024.40;1331.20;;;;;;4939770;28;20038;-85
2021/08/10 14:06:14;;;;;;;8.32;5.82;;;1024.30;1356.80;;;;;;4957619;28;20019;-85
2021/08/10 14:09:03;;;;;;;11.05;5.05;;;1024.40;1331.20;;;;;;4957532;28;20162;-83
2021/08/10 14:11:49;;;;;;;8.20;4.88;;;1024.20;1331.20;;;;;;4957822;28;20026;-84
2021/08/10 14:14:33;;;;;;;;;;;;;;;;;;;;;
2021/08/10 14:17:02;;;;;;;10.77;5.10;;;1024.00;1331.20;;;;;;4976772;28;20033;-85
2021/08/10 14:19:53;;;;;;;7.30;5.53;;;999.30;1356.80;;;;;;4959013;28;20027;-84
2021/08/10 14:22:30;;;;;;;8.93;4.68;;;999.20;1356.80;;;;;;4959548;28;20031;-84
2021/08/10 14:32:21;;;;;;;11.35;4.97;;;999.20;1382.40;;;;;;4860309;29;20029;-86
2021/08/10 14:37:37;;;;;;;7.80;5.07;;;999.20;1382.40;;;;;;4842624;29;20054;-86
2021/08/10 14:40:03;;;;;;;7.85;5.20;;;999.00;1382.40;;;;;;4845815;29;20064;-83
2021/08/10 14:45:54;;;;;;;8.93;5.85;;;999.10;1382.40;;;;;;4859826;29;20024;-83
2021/08/10 14:48:34;;;;;;;10.27;5.55;;;999.00;1408.00;;;;;;4850553;29;20031;-86
2021/08/10 14:51:09;;;;;;;14.02;5.55;;;999.10;1408.00;;;;;;4971030;28;20022;-83
2021/08/10 14:53:55;;;;;;;7.82;4.88;;;999.00;1408.00;;;;;;4998616;28;20116;-85
2021/08/10 14:56:21;;;;;;;8.65;4.80;;;998.80;1408.00;;;;;;5013911;28;20034;-84
2021/08/10 14:58:46;;;;;;;11.68;5.50;;;998.80;1433.60;;;;;;4998587;28;20034;-82
2021/08/10 15:01:12;;;;;;;9.75;4.85;;;998.70;1433.60;;;;;;4998418;28;20022;-82
2021/08/10 15:03:38;;;;;;;8.10;4.90;;;998.70;1433.60;;;;;;4998797;28;20029;-85
2021/08/10 15:06:04;;;;;;;12.60;5.65;;;998.70;1433.60;;;;;;4998539;28;20022;-83
2021/08/10 15:08:33;;;;;;;9.55;5.53;;;998.70;1433.60;;;;;;4998624;28;20026;-84
2021/08/10 15:10:59;;;;;;;6.95;4.65;;;998.40;1459.20;;;;;;4997235;28;20025;-82
2021/08/10 15:13:27;;;;;;;9.77;6.93;;;;;;;;;;4998545;28;20360;-84
2021/08/10 15:36:39;;;;;;;6.87;5.23;;;973.00;1510.40;;;;;;4956308;28;20030;-87
2021/08/10 15:39:05;;;;;;;10.75;6.00;;;973.00;1536.00;;;;;;4940230;28;20257;-87
2021/08/10 15:42:06;;;;;;;9.13;5.35;;;947.90;1510.40;;;;;;4957169;28;20205;-86
2021/08/10 15:45:03;;;;;;;11.55;7.30;;;947.90;1510.40;;;;;;4945213;28;20062;-86
2021/08/10 16:03:46;;;;;;;9.15;6.13;;;947.20;1561.60;;;;;;4992571;28;20054;-84
2021/08/10 16:06:24;;;;;;;15.38;7.05;;;922.10;1587.20;;;;;;4994027;28;20038;-86
2021/08/10 16:08:53;;;;;;;11.27;7.30;;;922.00;1587.20;;;;;;4994066;28;20030;-87
2021/08/10 16:11:19;;;;;;;22.58;17.60;;;922.00;1612.80;;;;;;4994604;28;20056;-84
2021/08/10 16:20:54;;;;;;;8.55;6.18;;;896.90;1587.20;;;;;;4975522;28;19937;-84
2021/08/10 16:26:54;;;;;;;12.52;7.53;;;896.50;1612.80;;;;;;4986529;28;20031;-85
2021/08/10 16:29:23;;;;;;;13.45;7.13;;;896.40;1638.40;;;;;;4974397;28;20034;-85
2021/08/10 16:31:58;;;;;;;11.27;6.10;;;896.10;1638.40;;;;;;4989483;28;20044;-84
2021/08/10 16:44:48;;;;;;;14.60;8.65;;;871.00;1689.60;;;;;;4994122;28;20029;-85
2021/08/10 16:47:25;;;;;;;13.60;9.07;;;871.00;1689.60;;;;;;4995413;28;20113;-82
2021/08/10 16:50:00;;;;;;;11.88;10.65;;;870.90;1689.60;;;;;;4993465;28;20065;-83
2021/08/10 16:52:26;;;;;;;14.10;10.70;;;870.90;1715.20;;;;;;4993768;28;20431;-81
2021/08/10 16:55:17;;;;;;;15.65;12.60;;;870.90;1715.20;;;;;;4993418;28;20014;-81
2021/08/10 16:58:39;;;;;;;12.93;9.63;;;870.80;1715.20;;;;;;4987210;28;20357;-85
2021/08/10 17:07:45;;;;;;;12.55;8.05;;;870.50;1766.40;;;;;;4994501;28;20046;-84
2021/08/10 17:10:12;;;;;;;14.32;7.60;;;845.70;1817.60;;;;;;4992735;28;20065;-84
2021/08/10 17:12:41;;;;;;;19.77;8.90;;;845.50;1792.00;;;;;;4992961;28;20034;-84
2021/08/10 17:15:09;;;;;;;12.25;8.35;;;845.70;1792.00;;;;;;4992743;28;20081;-87
2021/08/10 17:17:35;;;;;;;16.48;7.88;;;845.70;1792.00;;;;;;5003984;28;20405;-83
2021/08/10 17:20:01;;;;;;;14.30;8.27;;;845.70;1792.00;;;;;;4993300;28;20046;-84
2021/08/10 17:22:29;;;;;;;14.95;8.05;;;845.60;1766.40;;;;;;4993296;28;20021;-86
2021/08/10 17:25:01;;;;;;;14.35;8.75;;;845.60;1766.40;;;;;;4993704;28;20030;-86
2021/08/10 17:27:27;;;;;;;11.63;8.00;;;845.50;1792.00;;;;;;4993184;28;20037;-85
2021/08/10 17:29:53;;;;;;;14.55;8.20;;;820.10;1766.40;;;;;;4999448;28;20101;-84
2021/08/10 17:32:24;;;;;;;11.18;7.75;;;845.20;1843.20;;;;;;4993281;28;20022;-84
2021/08/10 17:34:56;;;;;;;12.07;7.63;;;845.10;1843.20;;;;;;4995177;28;20414;-83
2021/08/10 17:37:33;;;;;;;10.98;7.78;;;844.90;1868.80;;;;;;4997738;28;20018;-84
2021/08/10 17:40:17;;;;;;;12.43;8.13;;;820.10;1868.80;;;;;;4997467;28;20153;-85
2021/08/10 17:42:46;;;;;;;9.45;7.35;;;819.80;1894.40;;;;;;4997662;28;20026;-86
2021/08/10 17:45:21;;;;;;;11.02;8.10;;;819.60;1868.80;;;;;;4997257;28;20472;-84
2021/08/10 17:47:47;;;;;;;13.80;8.52;;;819.60;1894.40;;;;;;4996355;28;20531;-84
2021/08/10 17:50:15;;;;;;;13.38;8.15;;;819.60;1894.40;;;;;;4996569;28;20022;-85
2021/08/10 17:52:42;;;;;;;17.33;7.95;;;819.60;1920.00;;;;;;4996858;28;20342;-85
2021/08/10 17:55:08;;;;;;;14.23;7.80;;;819.50;1920.00;;;;;;4996677;28;20456;-86
2021/08/10 17:57:38;;;;;;;10.10;8.18;;;819.40;1920.00;;;;;;4996454;28;20018;-86
2021/08/10 18:00:06;;;;;;;12.20;8.40;;;819.30;1894.40;;;;;;4996441;28;20030;-81
2021/08/10 18:02:32;;;;;;;11.52;7.75;;;819.30;1920.00;;;;;;4997890;28;20376;-85
2021/08/10 18:04:58;;;;;;;14.93;7.68;;;819.30;1894.40;;;;;;4999121;28;20029;-81
2021/08/10 18:07:24;;;;;;;13.05;7.63;;;819.30;1920.00;;;;;;4999233;28;20026;-84
2021/08/10 18:09:49;;;;;;;13.93;8.35;;;819.30;1894.40;;;;;;4998922;28;20033;-82
2021/08/10 18:12:15;;;;;;;13.70;8.02;;;794.50;1920.00;;;;;;4999258;28;20448;-83
2021/08/10 18:14:41;;;;;;;12.05;7.53;;;794.50;1945.60;;;;;;4998996;28;20022;-82
2021/08/10 18:17:07;;;;;;;9.80;7.47;;;794.40;1920.00;;;;;;4998902;28;20045;-83
2021/08/10 18:19:33;;;;;;;15.15;7.65;;;794.30;1945.60;;;;;;4999126;28;20383;-81
2021/08/10 18:21:59;;;;;;;13.98;8.93;;;794.20;1945.60;;;;;;4999622;28;20053;-83
2021/08/10 18:24:25;;;;;;;12.65;7.78;;;794.20;1945.60;;;;;;5010859;28;20022;-82
2021/08/10 18:26:54;;;;;;;11.30;8.38;;;794.00;1971.20;;;;;;5010854;28;20030;-81
2021/08/10 18:29:20;;;;;;;14.45;7.30;;;793.90;1971.20;;;;;;5008120;28;20026;-82